Time;durP1;ratioP1;P1;durP2;ratioP2;P2;SDS_P1;SDS_P2;PMS_P1;PMS_P2;Temp;Humidity;BMP_temperature;BMP_pressure;BME280_temperature;BME280_humidity;BME280_pressure;Samples;Min_cycle;Max_cycle;Signal;HPM_P1;HPM_P2
2023/10/27 00:00:00;;;;;;;;;0.75;0.75;;;;;17.92;100.00;98687.81;2062711;28;46518;-61
2023/10/27 00:01:03;;;;;;;;;0.33;0.33;;;;;17.91;100.00;98678.03;2055896;28;46252;-59
2023/10/27 00:02:03;;;;;;;;;3.00;1.75;;;;;17.91;100.00;98692.34;2071284;28;46908;-60
2023/10/27 00:03:04;;;;;;;;;1.00;1.00;;;;;17.90;100.00;98689.75;2086978;28;45891;-60
2023/10/27 00:04:05;;;;;;;;;0.00;0.00;;;;;17.90;100.00;98687.94;2070017;28;46560;-61
2023/10/27 00:05:06;;;;;;;;;0.00;0.00;;;;;17.90;100.00;98684.38;2070152;28;46184;-57
2023/10/27 00:06:07;;;;;;;;;0.67;0.67;;;;;17.89;100.00;98683.53;2062459;28;46355;-61
2023/10/27 00:07:08;;;;;;;;;0.00;0.00;;;;;17.90;100.00;98685.25;2069418;28;46404;-61
2023/10/27 00:08:08;;;;;;;;;1.00;1.00;;;;;17.90;100.00;98687.06;2068842;28;46277;-59
2023/10/27 00:09:09;;;;;;;;;0.67;0.67;;;;;17.89;100.00;98680.00;2063318;28;46544;-60
2023/10/27 00:10:09;;;;;;;;;1.00;1.00;;;;;17.89;100.00;98680.84;2070115;28;46137;-57
2023/10/27 00:11:09;;;;;;;;;2.33;2.33;;;;;17.88;100.00;98676.47;2063297;28;46444;-53
2023/10/27 00:12:10;;;;;;;;;2.33;1.33;;;;;17.89;100.00;98680.84;2092642;28;46490;-54
2023/10/27 00:13:10;;;;;;;;;2.67;1.33;;;;;17.90;100.00;98676.34;2096473;28;46336;-57
2023/10/27 00:14:10;;;;;;;;;1.00;0.00;;;;;17.88;100.00;98681.84;2060168;28;46098;-55
2023/10/27 00:15:11;;;;;;;;;1.67;1.67;;;;;17.90;100.00;98681.72;2079703;28;45754;-58
2023/10/27 00:16:11;;;;;;;;;1.00;1.00;;;;;17.89;100.00;98686.22;2069740;28;46527;-58
2023/10/27 00:17:12;;;;;;;;;1.00;1.00;;;;;17.90;100.00;98679.88;2064628;27;46046;-57
2023/10/27 00:18:12;;;;;;;;;3.00;2.00;;;;;17.90;100.00;98684.38;2070847;28;46898;-53
2023/10/27 00:19:13;;;;;;;;;3.00;1.00;;;;;17.90;100.00;98687.94;2054983;28;46510;-57
2023/10/27 00:20:13;;;;;;;;;2.00;1.33;;;;;17.90;100.00;98689.75;2070048;28;46842;-58
2023/10/27 00:21:13;;;;;;;;;1.33;1.33;;;;;17.91;100.00;98691.47;2070282;28;46412;-59
2023/10/27 00:22:14;;;;;;;;;0.00;0.00;;;;;17.91;100.00;98695.03;2062874;28;45211;-55
2023/10/27 00:23:15;;;;;;;;;1.00;1.00;;;;;17.92;100.00;98690.50;2070402;28;46540;-60
2023/10/27 00:24:16;;;;;;;;;1.00;1.00;;;;;17.92;100.00;98693.19;2062840;28;46443;-61
2023/10/27 00:25:16;;;;;;;;;0.00;0.00;;;;;17.92;100.00;98695.88;2076752;28;46647;-59
2023/10/27 00:26:16;;;;;;;;;1.00;0.00;;;;;17.92;100.00;98695.88;2087293;28;45258;-57
2023/10/27 00:27:18;;;;;;;;;1.33;1.33;;;;;17.92;100.00;98694.03;2086264;28;46326;-58
2023/10/27 00:28:18;;;;;;;;;2.00;2.00;;;;;17.93;100.00;98701.09;2068329;27;46751;-58
2023/10/27 00:29:18;;;;;;;;;3.00;3.00;;;;;17.94;100.00;98688.53;2077761;28;45656;-58
2023/10/27 00:30:18;;;;;;;;;3.00;3.00;;;;;17.93;100.00;98687.69;2077844;28;46692;-60
2023/10/27 00:31:19;;;;;;;;;2.00;2.00;;;;;17.93;100.00;98686.84;2073671;28;46608;-57
2023/10/27 00:32:19;;;;;;;;;2.00;2.00;;;;;17.92;100.00;98693.19;2093814;28;46107;-61
2023/10/27 00:33:20;;;;;;;;;2.00;2.00;;;;;17.93;100.00;98693.06;2070208;28;46454;-61
2023/10/27 00:34:20;;;;;;;;;3.00;3.00;;;;;17.89;100.00;98688.91;2087298;28;47183;-58
2023/10/27 00:35:20;;;;;;;;;2.00;2.00;;;;;17.92;100.00;98688.69;2065742;28;46675;-59
2023/10/27 00:36:21;;;;;;;;;0.00;0.00;;;;;17.92;100.00;98694.03;2053954;28;46601;-56
2023/10/27 00:37:21;;;;;;;;;3.00;3.00;;;;;17.93;100.00;98694.91;2068587;28;46800;-61
2023/10/27 00:38:21;;;;;;;;;2.00;2.00;;;;;17.92;100.00;98698.56;2064629;28;46726;-59
2023/10/27 00:39:22;;;;;;;;;1.00;1.00;;;;;17.92;100.00;98695.88;2062112;28;46291;-58
2023/10/27 00:40:22;;;;;;;;;2.00;2.00;;;;;17.92;100.00;98703.94;2068216;28;45310;-59
2023/10/27 00:41:24;;;;;;;;;3.00;3.00;;;;;17.90;100.00;98706.72;2067485;28;45637;-55
2023/10/27 00:42:24;;;;;;;;;5.75;4.50;;;;;17.90;100.00;98705.84;2060691;28;46876;-59
2023/10/27 00:43:24;;;;;;;;;5.00;3.00;;;;;17.91;100.00;98702.19;2072141;28;46257;-59
2023/10/27 00:44:24;;;;;;;;;5.00;4.00;;;;;17.92;100.00;98701.25;2079966;28;46466;-61
2023/10/27 00:45:26;;;;;;;;;3.00;3.00;;;;;17.92;100.00;98702.09;2094852;28;45453;-57
2023/10/27 00:46:26;;;;;;;;;4.50;3.25;;;;;17.92;100.00;98704.78;2072795;28;46270;-60
2023/10/27 00:47:29;;;;;;;;;3.00;3.00;;;;;17.94;100.00;98704.66;2068726;28;46909;-56
2023/10/27 00:48:30;;;;;;;;;0.00;0.00;;;;;17.91;100.00;98703.06;2068164;28;46923;-58
2023/10/27 00:49:30;;;;;;;;;1.00;1.00;;;;;17.90;100.00;98705.84;2071787;28;48468;-59
2023/10/27 00:50:31;;;;;;;;;2.00;2.00;;;;;17.88;100.00;98710.50;2068825;28;46885;-53
2023/10/27 00:51:31;;;;;;;;;2.00;2.00;;;;;17.90;100.00;98703.19;2072942;28;46203;-61
2023/10/27 00:52:32;;;;;;;;;3.00;3.00;;;;;17.91;100.00;98710.25;2064379;28;46931;-57
2023/10/27 00:53:33;;;;;;;;;1.67;1.67;;;;;17.90;100.00;98704.03;2068686;28;46651;-61
2023/10/27 00:54:35;;;;;;;;;3.75;1.25;;;;;17.90;100.00;98705.84;2070703;28;46516;-60
2023/10/27 00:55:36;;;;;;;;;1.25;1.25;;;;;17.90;100.00;98711.22;2055541;28;46956;-60
2023/10/27 00:56:37;;;;;;;;;0.50;0.50;;;;;17.89;100.00;98704.16;2066399;28;46161;-60
2023/10/27 00:57:37;;;;;;;;;4.00;4.00;;;;;17.88;100.00;98703.31;2065145;28;46347;-59
2023/10/27 00:58:38;;;;;;;;;4.33;3.67;;;;;17.88;100.00;98706.00;2062975;28;46574;-57
2023/10/27 00:59:39;;;;;;;;;2.00;1.00;;;;;17.88;100.00;98710.50;2071894;28;46488;-62
2023/10/27 01:00:39;;;;;;;;;4.33;3.00;;;;;17.89;100.00;98709.53;2066215;28;46221;-60
2023/10/27 01:01:42;;;;;;;;;12.33;11.00;;;;;17.90;100.00;98711.22;2061467;28;46309;-60
2023/10/27 01:02:42;;;;;;;;;20.40;18.60;;;;;17.90;100.00;98709.41;2077877;28;47336;-60
2023/10/27 01:03:43;;;;;;;;;32.25;25.50;;;;;17.91;100.00;98718.28;2054375;28;46529;-57
2023/10/27 01:04:44;;;;;;;;;38.25;33.50;;;;;17.87;100.00;98709.66;2065642;28;46205;-60
2023/10/27 01:05:44;;;;;;;;;22.50;22.50;;;;;17.87;100.00;98716.84;2067799;28;46847;-59
2023/10/27 01:06:45;;;;;;;;;13.33;11.00;;;;;17.89;100.00;98720.25;2062532;28;45716;-60
2023/10/27 01:07:45;;;;;;;;;5.00;5.00;;;;;17.87;100.00;98719.53;2066714;28;45554;-58
2023/10/27 01:08:46;;;;;;;;;6.00;4.00;;;;;17.86;100.00;98717.84;2065349;28;45398;-55
2023/10/27 01:09:46;;;;;;;;;5.00;4.33;;;;;17.90;100.00;98721.97;2058235;28;46548;-56
2023/10/27 01:10:46;;;;;;;;;3.33;3.33;;;;;17.87;100.00;98716.84;2061175;28;46617;-59
2023/10/27 01:11:48;;;;;;;;;7.33;5.00;;;;;17.87;100.00;98720.38;2054884;28;46438;-60
2023/10/27 01:12:50;;;;;;;;;5.00;4.75;;;;;17.90;100.00;98725.50;2061085;28;46390;-58
2023/10/27 01:13:54;;;;;;;;;8.75;8.75;;;;;17.88;100.00;98722.09;2058560;28;46546;-57
2023/10/27 01:14:54;;;;;;;;;3.75;3.75;;;;;17.88;100.00;98729.28;2055200;28;46828;-59
2023/10/27 01:15:55;;;;;;;;;4.33;4.33;;;;;17.90;100.00;98722.81;2064759;28;46450;-58
2023/10/27 01:16:56;;;;;;;;;4.00;4.00;;;;;17.87;100.00;98723.06;2066066;28;45894;-60
2023/10/27 01:17:57;;;;;;;;;5.00;5.00;;;;;17.87;100.00;98725.75;2078752;28;45217;-59
2023/10/27 01:18:57;;;;;;;;;3.67;3.33;;;;;17.88;100.00;98726.59;2085364;28;45493;-59
2023/10/27 01:19:57;;;;;;;;;2.67;2.67;;;;;17.88;100.00;98730.16;2054900;28;46417;-59
2023/10/27 01:20:58;;;;;;;;;1.67;1.00;;;;;17.90;100.00;98724.66;2060996;28;45786;-59
2023/10/27 01:21:59;;;;;;;;;4.00;2.50;;;;;17.89;100.00;98725.63;2058620;28;46491;-60
2023/10/27 01:23:02;;;;;;;;;3.00;3.00;;;;;17.89;100.00;98721.13;2063153;28;45856;-59
2023/10/27 01:24:04;;;;;;;;;2.75;2.75;;;;;17.89;100.00;98721.13;2061125;28;46564;-59
2023/10/27 01:25:06;;;;;;;;;1.25;1.25;;;;;17.89;100.00;98726.47;2100465;28;45700;-60
2023/10/27 01:26:06;;;;;;;;;4.50;3.50;;;;;17.93;100.00;98730.63;2079235;28;46431;-59
2023/10/27 01:27:07;;;;;;;;;4.33;4.33;;;;;17.94;100.00;98732.34;2082813;28;45870;-57
2023/10/27 01:28:09;;;;;;;;;2.67;2.67;;;;;17.92;100.00;98723.56;2074866;28;46755;-56
2023/10/27 01:29:09;;;;;;;;;3.00;3.00;;;;;17.92;100.00;98726.25;2073330;28;45795;-57
2023/10/27 01:30:10;;;;;;;;;2.00;2.00;;;;;17.91;100.00;98727.22;2088228;28;46862;-60
2023/10/27 01:31:11;;;;;;;;;1.75;1.75;;;;;17.91;100.00;98729.91;2085129;28;46415;-60
2023/10/27 01:32:11;;;;;;;;;3.00;3.00;;;;;17.91;100.00;98729.91;2061504;28;46708;-58
2023/10/27 01:33:11;;;;;;;;;4.67;2.67;;;;;17.92;100.00;98730.75;2066263;28;46863;-60
2023/10/27 01:34:12;;;;;;;;;1.00;1.00;;;;;17.89;100.00;98733.69;2078336;27;46578;-57
2023/10/27 01:35:12;;;;;;;;;3.00;2.33;;;;;17.90;100.00;98728.19;2063248;28;46753;-61
2023/10/27 01:36:12;;;;;;;;;3.33;3.33;;;;;17.87;100.00;98717.72;2075465;28;46297;-60
2023/10/27 01:37:13;;;;;;;;;2.67;2.00;;;;;17.89;100.00;98734.53;2071280;28;46355;-56
2023/10/27 01:38:13;;;;;;;;;2.67;2.67;;;;;17.89;100.00;98726.47;2068167;28;45120;-58
2023/10/27 01:39:13;;;;;;;;;3.33;2.00;;;;;17.88;100.00;98719.41;2061952;28;46378;-53
2023/10/27 01:40:14;;;;;;;;;4.00;4.00;;;;;17.89;100.00;98726.47;2060537;28;46177;-55
2023/10/27 01:41:14;;;;;;;;;3.00;3.00;;;;;17.88;100.00;98732.81;2075847;28;46762;-58
2023/10/27 01:42:14;;;;;;;;;2.00;2.00;;;;;17.88;100.00;98731.97;2073506;28;46012;-57
2023/10/27 01:43:15;;;;;;;;;5.67;4.33;;;;;17.89;100.00;98723.78;2062447;28;46233;-58
2023/10/27 01:44:15;;;;;;;;;1.00;1.00;;;;;17.89;100.00;98723.78;2083518;28;46281;-59
2023/10/27 01:45:15;;;;;;;;;3.00;3.00;;;;;17.88;100.00;98732.81;2105557;28;46702;-60
2023/10/27 01:46:16;;;;;;;;;3.00;3.00;;;;;17.88;100.00;98735.50;2104778;27;45501;-55
2023/10/27 01:47:16;;;;;;;;;3.33;2.67;;;;;17.87;100.00;98732.97;2104453;27;46301;-57
2023/10/27 01:48:16;;;;;;;;;3.67;2.00;;;;;17.87;100.00;98733.81;2063088;28;46440;-59
2023/10/27 01:49:17;;;;;;;;;1.00;1.00;;;;;17.85;100.00;98733.09;2075975;28;46387;-60
2023/10/27 01:50:17;;;;;;;;;1.33;1.33;;;;;17.86;100.00;98744.66;2076324;28;45830;-55
2023/10/27 01:51:17;;;;;;;;;2.00;2.00;;;;;17.80;100.00;98738.00;2062991;28;46308;-61
2023/10/27 01:52:18;;;;;;;;;2.00;1.67;;;;;17.80;100.00;98739.84;2082689;28;45685;-58
2023/10/27 01:53:18;;;;;;;;;2.67;2.67;;;;;17.72;100.00;98743.13;2083240;28;46160;-55
2023/10/27 01:54:18;;;;;;;;;2.00;2.00;;;;;17.70;100.00;98742.41;2070200;28;46765;-59
2023/10/27 01:55:19;;;;;;;;;1.00;1.00;;;;;17.71;100.00;98745.94;2070948;28;46503;-58
2023/10/27 01:56:19;;;;;;;;;2.33;2.00;;;;;17.77;100.00;98746.28;2060985;28;46310;-60
2023/10/27 01:57:23;;;;;;;;;3.67;3.00;;;;;17.76;100.00;98735.69;2069651;28;46498;-60
2023/10/27 01:58:27;;;;;;;;;2.00;1.00;;;;;17.78;100.00;98742.63;2072553;28;46368;-57
2023/10/27 01:59:29;;;;;;;;;1.00;0.50;;;;;17.78;100.00;98747.97;2062414;28;46533;-58
2023/10/27 02:00:29;;;;;;;;;2.00;2.00;;;;;17.78;100.00;98741.75;2072110;28;47081;-60
2023/10/27 02:01:29;;;;;;;;;2.00;2.00;;;;;17.78;100.00;98747.13;2070225;28;46594;-56
2023/10/27 02:02:30;;;;;;;;;3.00;2.00;;;;;17.77;100.00;98748.09;2089028;28;46314;-61
2023/10/27 02:03:30;;;;;;;;;1.33;1.00;;;;;17.78;100.00;98745.28;2090521;28;46535;-57
2023/10/27 02:04:37;;;;;;;;;1.00;1.00;;;;;17.77;100.00;98740.91;2063218;28;47220;-56
2023/10/27 02:05:43;;;;;;;;;0.00;0.00;;;;;17.77;100.00;98745.44;2063171;28;46489;-59
2023/10/27 02:06:44;;;;;;;;;1.25;1.25;;;;;17.77;100.00;98742.75;2071448;28;46403;-59
2023/10/27 02:07:44;;;;;;;;;1.00;1.00;;;;;17.75;100.00;98745.56;2063151;28;46226;-58
2023/10/27 02:08:44;;;;;;;;;0.33;0.33;;;;;17.76;100.00;98749.94;2071833;28;46375;-59
2023/10/27 02:09:45;;;;;;;;;2.00;2.00;;;;;17.76;100.00;98751.78;2072120;28;46886;-58
2023/10/27 02:10:45;;;;;;;;;1.00;1.00;;;;;17.65;100.00;98750.78;2063105;28;46147;-58
2023/10/27 02:11:46;;;;;;;;;3.00;3.00;;;;;17.70;100.00;98744.25;2071907;28;46386;-59
2023/10/27 02:12:46;;;;;;;;;0.00;0.00;;;;;17.65;100.00;98744.56;2064435;28;45282;-59
2023/10/27 02:13:47;;;;;;;;;1.00;1.00;;;;;17.67;100.00;98748.00;2063386;28;46727;-57
2023/10/27 02:14:47;;;;;;;;;1.00;1.00;;;;;17.69;100.00;98753.28;2072753;28;45515;-57
2023/10/27 02:15:47;;;;;;;;;1.00;1.00;;;;;17.67;100.00;98755.19;2062851;28;46596;-58
2023/10/27 02:16:47;;;;;;;;;1.00;1.00;;;;;17.68;100.00;98751.53;2072827;28;46814;-60
2023/10/27 02:17:48;;;;;;;;;2.00;2.00;;;;;17.65;100.00;98745.41;2072735;28;46384;-57
2023/10/27 02:18:48;;;;;;;;;1.00;1.00;;;;;17.67;100.00;98753.38;2062813;28;46464;-59
2023/10/27 02:19:50;;;;;;;;;1.00;1.00;;;;;17.67;100.00;98747.16;2076643;28;46462;-60
2023/10/27 02:20:50;;;;;;;;;0.00;0.00;;;;;17.66;100.00;98746.31;2078964;28;46567;-59
2023/10/27 02:21:51;;;;;;;;;1.00;1.00;;;;;17.64;100.00;98750.91;2073681;28;46934;-56
2023/10/27 02:22:51;;;;;;;;;1.67;1.67;;;;;17.65;100.00;98752.63;2074770;28;46360;-60
2023/10/27 02:23:51;;;;;;;;;1.00;1.00;;;;;17.63;100.00;98747.38;2070998;28;45794;-59
2023/10/27 02:24:52;;;;;;;;;1.00;1.00;;;;;17.63;100.00;98752.75;2071506;28;46592;-62
2023/10/27 02:25:54;;;;;;;;;1.00;0.00;;;;;17.62;100.00;98750.19;2071319;28;46658;-56
2023/10/27 02:26:54;;;;;;;;;2.00;1.25;;;;;17.51;100.00;98753.75;2071382;28;45728;-59
2023/10/27 02:27:54;;;;;;;;;1.00;1.00;;;;;17.48;100.00;98754.00;2068711;28;45913;-60
2023/10/27 02:28:55;;;;;;;;;2.33;1.00;;;;;17.47;100.00;98751.44;2057021;28;46669;-57
2023/10/27 02:29:55;;;;;;;;;4.33;2.67;;;;;17.50;100.00;98759.25;2064576;28;46467;-56
2023/10/27 02:30:55;;;;;;;;;0.00;0.00;;;;;17.52;100.00;98754.59;2067588;28;46654;-58
2023/10/27 02:31:56;;;;;;;;;1.00;1.00;;;;;17.43;100.00;98747.31;2064928;28;46225;-57
2023/10/27 02:32:56;;;;;;;;;2.33;2.33;;;;;17.53;100.00;98746.44;2073411;28;46307;-57
2023/10/27 02:33:56;;;;;;;;;0.00;0.00;;;;;17.55;100.00;98741.81;2070234;28;46126;-57
2023/10/27 02:34:57;;;;;;;;;3.00;2.33;;;;;17.55;100.00;98755.22;2054666;28;45964;-59
2023/10/27 02:35:58;;;;;;;;;2.50;2.50;;;;;17.54;100.00;98747.31;2082629;28;47043;-58
2023/10/27 02:36:58;;;;;;;;;0.67;0.67;;;;;17.54;100.00;98755.34;2086878;28;46660;-57
2023/10/27 02:37:58;;;;;;;;;1.00;1.00;;;;;17.50;100.00;98748.50;2101126;28;46415;-60
2023/10/27 02:38:59;;;;;;;;;2.00;2.00;;;;;17.44;100.00;98755.25;2081654;28;45552;-58
2023/10/27 02:39:59;;;;;;;;;1.00;1.00;;;;;17.42;100.00;98740.25;2074672;28;45736;-57
2023/10/27 02:41:07;;;;;;;;;1.67;1.67;;;;;17.53;100.00;98751.81;2059724;28;46537;-59
2023/10/27 02:42:07;;;;;;;;;3.00;3.00;;;;;17.55;100.00;98749.84;2070677;28;46517;-59
2023/10/27 02:43:08;;;;;;;;;1.33;1.33;;;;;17.54;100.00;98745.47;2100405;28;46330;-61
2023/10/27 02:44:10;;;;;;;;;2.00;2.00;;;;;17.56;100.00;98743.50;2085966;28;46408;-60
2023/10/27 02:45:11;;;;;;;;;1.75;1.75;;;;;17.53;100.00;98738.41;2079940;27;46520;-56
2023/10/27 02:46:12;;;;;;;;;2.00;2.00;;;;;17.54;100.00;98741.94;2105525;28;45957;-60
2023/10/27 02:47:12;;;;;;;;;2.00;2.00;;;;;17.52;100.00;98741.19;2077464;28;46944;-59
2023/10/27 02:48:13;;;;;;;;;2.00;2.00;;;;;17.52;100.00;98749.22;2088558;28;46324;-61
2023/10/27 02:49:13;;;;;;;;;3.00;3.00;;;;;17.42;100.00;98748.31;2092988;28;46799;-61
2023/10/27 02:50:13;;;;;;;;;1.33;1.33;;;;;17.39;100.00;98748.53;2078716;28;46446;-60
2023/10/27 02:51:15;;;;;;;;;1.33;1.33;;;;;17.49;100.00;98754.84;2081284;28;46546;-57
2023/10/27 02:52:15;;;;;;;;;5.00;2.25;;;;;17.48;100.00;98755.84;2085615;28;46391;-59
2023/10/27 02:53:15;;;;;;;;;2.67;2.33;;;;;17.46;100.00;98753.28;2078809;28;45566;-60
2023/10/27 02:54:16;;;;;;;;;3.67;2.00;;;;;17.47;100.00;98754.13;2069894;28;46294;-59
2023/10/27 02:55:16;;;;;;;;;4.67;2.33;;;;;17.46;100.00;98747.06;2075936;28;46262;-55
2023/10/27 02:56:17;;;;;;;;;2.33;2.33;;;;;17.40;100.00;98745.72;2066360;28;46728;-57
2023/10/27 02:57:17;;;;;;;;;1.67;0.67;;;;;17.42;100.00;98746.47;2075673;28;46032;-58
2023/10/27 02:58:17;;;;;;;;;1.33;1.00;;;;;17.39;100.00;98749.38;2070501;28;46613;-59
2023/10/27 02:59:18;;;;;;;;;3.67;2.00;;;;;17.36;100.00;98750.47;2069929;28;46441;-55
2023/10/27 03:00:19;;;;;;;;;1.00;1.00;;;;;17.35;100.00;98743.41;2085436;28;46309;-61
2023/10/27 03:01:19;;;;;;;;;1.75;1.75;;;;;17.38;100.00;98747.66;2066677;28;46240;-59
2023/10/27 03:02:20;;;;;;;;;3.33;3.33;;;;;17.33;100.00;98756.09;2082205;28;46903;-60
2023/10/27 03:03:20;;;;;;;;;3.33;3.00;;;;;17.37;100.00;98754.00;2082720;28;46741;-58
2023/10/27 03:04:20;;;;;;;;;2.67;2.00;;;;;17.34;100.00;98748.91;2067069;28;46930;-58
2023/10/27 03:05:21;;;;;;;;;4.00;4.00;;;;;17.34;100.00;98748.91;2063884;28;47347;-59
2023/10/27 03:06:22;;;;;;;;;3.00;2.00;;;;;17.25;100.00;98758.53;2073572;28;46685;-59
2023/10/27 03:07:22;;;;;;;;;2.00;2.00;;;;;17.25;100.00;98755.00;2069509;28;46658;-60
2023/10/27 03:08:23;;;;;;;;;2.33;2.33;;;;;17.29;100.00;98761.84;2083656;28;46272;-58
2023/10/27 03:09:23;;;;;;;;;2.00;2.00;;;;;17.29;100.00;98757.34;2063144;28;46410;-51
2023/10/27 03:10:23;;;;;;;;;1.00;1.00;;;;;17.32;100.00;98762.44;2076933;27;46916;-52
2023/10/27 03:11:24;;;;;;;;;3.00;3.00;;;;;17.33;100.00;98764.16;2077460;28;46153;-55
2023/10/27 03:12:24;;;;;;;;;2.33;2.33;;;;;17.29;100.00;98757.34;2063585;28;46165;-59
2023/10/27 03:13:27;;;;;;;;;1.67;1.00;;;;;17.20;100.00;98760.75;2076962;28;46829;-60
2023/10/27 03:14:27;;;;;;;;;4.00;2.50;;;;;17.29;100.00;98764.53;2069168;28;46494;-59
2023/10/27 03:15:27;;;;;;;;;2.00;2.00;;;;;17.23;100.00;98763.16;2069618;28;46483;-61
2023/10/27 03:16:28;;;;;;;;;4.00;4.00;;;;;17.21;100.00;98761.59;2079267;28;46868;-59
2023/10/27 03:17:28;;;;;;;;;1.00;1.00;;;;;17.22;100.00;98764.16;2063959;28;46300;-58
2023/10/27 03:18:28;;;;;;;;;4.00;4.00;;;;;17.16;100.00;98761.97;2074941;28;46456;-60
2023/10/27 03:19:29;;;;;;;;;3.67;3.67;;;;;17.17;100.00;98768.19;2078377;28;46697;-60
2023/10/27 03:20:29;;;;;;;;;3.00;3.00;;;;;17.16;100.00;98772.69;2068558;28;46616;-57
2023/10/27 03:21:29;;;;;;;;;4.00;3.67;;;;;17.24;100.00;98770.22;2076314;28;46329;-58
2023/10/27 03:22:30;;;;;;;;;2.67;2.67;;;;;17.22;100.00;98758.78;2067384;28;46278;-59
2023/10/27 03:23:31;;;;;;;;;3.00;2.25;;;;;17.24;100.00;98764.03;2081877;28;46296;-58
2023/10/27 03:24:31;;;;;;;;;3.33;2.67;;;;;17.25;100.00;98773.75;2071101;28;46244;-56
2023/10/27 03:25:32;;;;;;;;;2.33;2.33;;;;;17.24;100.00;98769.38;2086169;28;46066;-59
2023/10/27 03:26:32;;;;;;;;;4.00;3.00;;;;;17.23;100.00;98768.53;2079664;28;46183;-58
2023/10/27 03:27:32;;;;;;;;;1.67;1.67;;;;;17.15;100.00;98768.31;2072576;28;46218;-60
2023/10/27 03:28:33;;;;;;;;;3.33;2.67;;;;;17.10;100.00;98775.00;2077226;28;46379;-57
2023/10/27 03:29:33;;;;;;;;;2.00;2.00;;;;;17.09;100.00;98774.16;2071529;28;46372;-60
2023/10/27 03:30:33;;;;;;;;;4.67;3.67;;;;;17.08;100.00;98777.81;2079750;28;46864;-61
2023/10/27 03:31:34;;;;;;;;;5.00;1.67;;;;;17.08;100.00;98774.28;2071332;28;45848;-58
2023/10/27 03:32:35;;;;;;;;;2.00;2.00;;;;;17.11;100.00;98779.38;2070613;28;46749;-57
2023/10/27 03:33:35;;;;;;;;;3.33;3.33;;;;;17.07;100.00;98784.13;2084521;28;46559;-58
2023/10/27 03:34:35;;;;;;;;;0.00;0.00;;;;;17.10;100.00;98778.53;2090253;28;46209;-61
2023/10/27 03:35:40;;;;;;;;;2.00;2.00;;;;;17.09;100.00;98786.69;2063515;28;46182;-60
2023/10/27 03:36:40;;;;;;;;;1.75;1.75;;;;;17.14;100.00;98785.34;2090563;28;46679;-59
2023/10/27 03:37:41;;;;;;;;;1.33;1.33;;;;;17.12;100.00;98781.09;2070310;28;45533;-57
2023/10/27 03:38:41;;;;;;;;;2.67;2.67;;;;;17.14;100.00;98782.66;2059455;28;46046;-60
2023/10/27 03:39:42;;;;;;;;;3.00;1.00;;;;;17.12;100.00;98786.44;2067377;28;46167;-59
2023/10/27 03:40:44;;;;;;;;;3.50;2.00;;;;;17.16;100.00;98778.06;2069110;28;46897;-53
2023/10/27 03:41:45;;;;;;;;;3.75;3.75;;;;;17.14;100.00;98788.03;2062895;28;46987;-59
2023/10/27 03:42:45;;;;;;;;;1.33;1.33;;;;;17.14;100.00;98782.66;2066935;28;46201;-61
2023/10/27 03:43:47;;;;;;;;;3.00;3.00;;;;;17.15;100.00;98781.72;2071050;28;46670;-59
2023/10/27 03:44:47;;;;;;;;;2.00;2.00;;;;;17.13;100.00;98778.28;2069854;28;46840;-59
2023/10/27 03:45:47;;;;;;;;;4.67;3.33;;;;;17.17;100.00;98786.94;2073491;28;46456;-59
2023/10/27 03:46:48;;;;;;;;;4.33;4.00;;;;;17.21;100.00;98788.41;2065825;28;45345;-57
2023/10/27 03:47:49;;;;;;;;;4.00;3.00;;;;;17.21;100.00;98783.03;2070448;28;46441;-56
2023/10/27 03:48:49;;;;;;;;;3.33;3.00;;;;;17.22;100.00;98780.22;2068922;28;45085;-55
2023/10/27 03:49:49;;;;;;;;;4.67;3.67;;;;;17.22;100.00;98782.06;2073789;28;46278;-60
2023/10/27 03:50:49;;;;;;;;;3.00;2.00;;;;;17.22;100.00;98782.91;2067831;28;46722;-58
2023/10/27 03:51:50;;;;;;;;;3.00;3.00;;;;;17.21;100.00;98772.31;2062962;28;46570;-57
2023/10/27 03:52:50;;;;;;;;;3.00;2.00;;;;;17.20;100.00;98782.19;2072663;28;46819;-58
2023/10/27 03:53:53;;;;;;;;;4.67;3.33;;;;;17.21;100.00;98777.69;2076553;28;46061;-57
2023/10/27 03:54:53;;;;;;;;;3.25;3.00;;;;;17.21;100.00;98777.69;2063520;28;46330;-59
2023/10/27 03:55:54;;;;;;;;;3.67;3.67;;;;;17.21;100.00;98772.31;2070550;28;46306;-57
2023/10/27 03:56:55;;;;;;;;;4.67;3.00;;;;;17.22;100.00;98782.06;2093103;28;45598;-57
2023/10/27 03:58:11;;;;;;;;;3.00;2.00;;;;;17.23;100.00;98786.44;2091664;28;46605;-60
2023/10/27 03:59:11;;;;;;;;;3.00;2.25;;;;;17.23;100.00;98779.25;2089569;28;46451;-60
2023/10/27 04:00:13;;;;;;;;;2.00;2.00;;;;;17.23;100.00;98784.63;2092677;28;46807;-59
2023/10/27 04:01:15;;;;;;;;;4.25;2.75;;;;;17.23;100.00;98778.41;2088034;28;46444;-59
2023/10/27 04:02:16;;;;;;;;;3.00;3.00;;;;;17.20;100.00;98774.16;2091587;28;46949;-60
2023/10/27 04:03:16;;;;;;;;;4.00;2.50;;;;;17.21;100.00;98772.31;2100931;28;46471;-60
2023/10/27 04:04:16;;;;;;;;;5.00;2.67;;;;;17.23;100.00;98770.38;2096058;28;46462;-59
2023/10/27 04:05:17;;;;;;;;;4.67;2.00;;;;;17.23;100.00;98776.56;2101795;28;45538;-57
2023/10/27 04:06:17;;;;;;;;;5.00;4.00;;;;;17.24;100.00;98772.06;2099506;28;46905;-54
2023/10/27 04:07:17;;;;;;;;;4.00;3.00;;;;;17.24;100.00;98767.56;2097667;28;46300;-59
2023/10/27 04:08:18;;;;;;;;;4.33;4.33;;;;;17.24;100.00;98772.06;2085734;28;45598;-61
2023/10/27 04:09:18;;;;;;;;;5.00;4.00;;;;;17.24;100.00;98769.38;2089261;28;46644;-58
2023/10/27 04:10:18;;;;;;;;;3.00;3.00;;;;;17.24;100.00;98769.38;2100373;28;46918;-62
2023/10/27 04:11:18;;;;;;;;;2.00;2.00;;;;;17.24;100.00;98772.06;2100374;28;46350;-59
2023/10/27 04:12:19;;;;;;;;;1.00;0.00;;;;;17.22;100.00;98772.19;2091973;28;46519;-58
2023/10/27 04:13:19;;;;;;;;;4.00;4.00;;;;;17.25;100.00;98773.75;2102386;28;46179;-60
2023/10/27 04:14:19;;;;;;;;;4.00;2.00;;;;;17.25;100.00;98776.44;2098418;28;46717;-57
2023/10/27 04:15:20;;;;;;;;;4.00;4.00;;;;;17.25;100.00;98776.44;2099001;28;47018;-61
2023/10/27 04:16:20;;;;;;;;;2.33;2.33;;;;;17.25;100.00;98779.97;2101790;28;45954;-61
2023/10/27 04:17:20;;;;;;;;;2.33;2.00;;;;;17.25;100.00;98776.44;2097307;28;46882;-60
2023/10/27 04:18:21;;;;;;;;;2.00;2.00;;;;;17.23;100.00;98773.91;2097978;28;46359;-61
2023/10/27 04:19:21;;;;;;;;;5.00;4.00;;;;;17.26;100.00;98778.16;2102265;28;46517;-61
2023/10/27 04:20:21;;;;;;;;;2.00;2.00;;;;;17.26;100.00;98786.19;2099098;28;45963;-59
2023/10/27 04:21:22;;;;;;;;;1.33;1.33;;;;;17.26;100.00;98786.19;2090288;28;46752;-56
2023/10/27 04:22:22;;;;;;;;;3.00;3.00;;;;;17.26;100.00;98788.88;2091587;28;46345;-57
2023/10/27 04:23:22;;;;;;;;;4.00;3.00;;;;;17.25;100.00;98785.34;2089011;28;46523;-59
2023/10/27 04:24:23;;;;;;;;;4.00;4.00;;;;;17.25;100.00;98788.03;2091733;28;46474;-59
2023/10/27 04:25:23;;;;;;;;;4.33;3.00;;;;;17.25;100.00;98790.69;2096079;28;46628;-56
2023/10/27 04:26:24;;;;;;;;;5.00;4.00;;;;;17.25;100.00;98796.06;2095263;28;46204;-58
2023/10/27 04:27:25;;;;;;;;;5.67;3.33;;;;;17.26;100.00;98787.03;2096609;28;46370;-59
2023/10/27 04:28:25;;;;;;;;;2.33;2.00;;;;;17.28;100.00;98800.34;2087347;28;46791;-60
2023/10/27 04:29:25;;;;;;;;;2.67;2.67;;;;;17.27;100.00;98788.75;2085919;28;44971;-59
2023/10/27 04:30:26;;;;;;;;;3.00;3.00;;;;;17.27;100.00;98794.09;2063247;28;46208;-59
2023/10/27 04:31:26;;;;;;;;;3.00;3.00;;;;;17.27;100.00;98788.75;2061565;28;46812;-57
2023/10/27 04:32:27;;;;;;;;;5.00;5.00;;;;;17.27;100.00;98791.44;2059554;28;46534;-60
2023/10/27 04:33:29;;;;;;;;;4.00;1.33;;;;;17.27;100.00;98795.94;2071864;28;46541;-59
2023/10/27 04:34:30;;;;;;;;;2.25;2.25;;;;;17.27;100.00;98788.75;2076473;28;46739;-60
2023/10/27 04:35:30;;;;;;;;;3.67;3.67;;;;;17.28;100.00;98795.00;2064575;28;46574;-57
2023/10/27 04:36:30;;;;;;;;;2.00;2.00;;;;;17.26;100.00;98789.72;2064041;28;46975;-60
2023/10/27 04:37:32;;;;;;;;;3.00;2.67;;;;;17.26;100.00;98794.22;2064729;28;46608;-60
2023/10/27 04:38:32;;;;;;;;;3.75;2.00;;;;;17.24;100.00;98783.63;2059078;28;46434;-58
2023/10/27 04:39:32;;;;;;;;;3.00;3.00;;;;;17.25;100.00;98789.84;2054667;28;46422;-57
2023/10/27 04:40:34;;;;;;;;;1.00;1.00;;;;;17.24;100.00;98789.00;2064093;28;45979;-60
2023/10/27 04:41:34;;;;;;;;;3.00;3.00;;;;;17.25;100.00;98793.38;2062999;28;47079;-60